createdAt,value
2022-11-01T00:00:22.495Z,70.78
2022-11-01T00:05:24.133Z,70.84
2022-11-01T00:10:25.800Z,70.53
2022-11-01T00:15:27.452Z,70.70
2022-11-01T00:20:29.135Z,70.77
2022-11-01T00:25:30.772Z,70.47
2022-11-01T00:30:32.524Z,70.39
2022-11-01T00:35:37.066Z,70.51
2022-11-01T00:40:38.717Z,70.51
2022-11-01T00:45:42.781Z,70.57
2022-11-01T00:50:44.443Z,70.71
2022-11-01T00:55:46.098Z,71.10
2022-11-01T01:00:48.427Z,71.59
2022-11-01T01:05:51.160Z,71.57
2022-11-01T01:10:53.168Z,71.33
2022-11-01T01:15:54.836Z,70.77
2022-11-01T01:21:03.758Z,71.07
2022-11-01T01:26:10.495Z,71.14
2022-11-01T01:31:13.321Z,71.01
2022-11-01T01:36:14.993Z,71.34
2022-11-01T01:41:35.436Z,71.76
2022-11-01T01:46:37.096Z,71.32
2022-11-01T01:51:39.003Z,71.43
2022-11-01T01:56:40.719Z,71.10
2022-11-01T02:01:42.453Z,71.05
2022-11-01T02:06:44.269Z,71.12
2022-11-01T02:11:46.194Z,71.16
2022-11-01T02:16:50.488Z,70.47
2022-11-01T02:22:26.204Z,70.78
2022-11-01T02:27:51.270Z,71.18
2022-11-01T02:33:22.806Z,70.79
2022-11-01T02:38:33.559Z,70.92
2022-11-01T02:43:49.127Z,71.22
2022-11-01T02:48:51.342Z,70.93
2022-11-01T02:53:53.007Z,70.84
2022-11-01T02:58:54.879Z,71.30
2022-11-01T03:03:59.008Z,71.58
2022-11-01T03:09:04.910Z,71.46
2022-11-01T03:14:21.742Z,71.35
2022-11-01T03:19:51.798Z,71.02
2022-11-01T03:25:02.373Z,71.00
2022-11-01T03:30:06.430Z,70.96
2022-11-01T03:35:13.950Z,70.95
2022-11-01T03:40:18.633Z,71.13
2022-11-01T03:50:31.122Z,71.38
2022-11-01T03:55:32.767Z,71.06
2022-11-01T04:00:40.763Z,71.09
2022-11-01T04:05:43.041Z,71.08
2022-11-01T04:10:44.884Z,71.32
2022-11-01T04:16:05.271Z,71.12
2022-11-01T04:21:16.418Z,71.07
2022-11-01T04:26:21.348Z,70.81
2022-11-01T04:31:31.758Z,70.98
2022-11-01T04:36:33.434Z,70.92
2022-11-01T04:41:35.083Z,70.98
2022-11-01T04:46:36.714Z,70.64
2022-11-01T04:51:41.603Z,70.80
2022-11-01T04:56:43.457Z,71.04
2022-11-01T05:01:45.426Z,71.17
2022-11-01T05:06:47.177Z,70.77
2022-11-01T05:11:48.870Z,71.01
2022-11-01T05:16:50.529Z,71.06
2022-11-01T05:21:52.657Z,71.08
2022-11-01T05:26:54.317Z,70.98
2022-11-01T05:31:56.009Z,71.43
2022-11-01T05:36:57.697Z,71.56
2022-11-01T05:42:02.647Z,71.73
2022-11-01T05:47:05.663Z,71.84
2022-11-01T05:52:07.342Z,71.94
2022-11-01T05:57:09.006Z,72.30
2022-11-01T06:02:10.937Z,72.52
2022-11-01T06:07:12.691Z,72.31
2022-11-01T06:12:14.336Z,71.75
2022-11-01T06:17:15.981Z,72.89
2022-11-01T06:22:17.617Z,73.01
2022-11-01T06:27:19.272Z,73.33
2022-11-01T06:32:27.519Z,73.66
2022-11-01T06:37:30.395Z,73.39
2022-11-01T06:42:36.237Z,73.09
2022-11-01T06:47:47.186Z,72.55
2022-11-01T06:52:51.410Z,72.81
2022-11-01T06:57:58.895Z,72.88
2022-11-01T07:03:06.765Z,72.59
2022-11-01T07:08:12.873Z,72.03
2022-11-01T07:13:16.730Z,71.84
2022-11-01T07:18:20.554Z,71.26
2022-11-01T07:23:25.388Z,71.29
2022-11-01T07:28:28.285Z,71.42
2022-11-01T07:33:37.415Z,70.66
2022-11-01T07:38:39.072Z,70.60
2022-11-01T07:43:40.774Z,70.71
2022-11-01T07:48:42.470Z,70.08
2022-11-01T07:53:44.123Z,69.89
2022-11-01T07:58:45.801Z,69.58
2022-11-01T08:03:49.425Z,69.35
2022-11-01T08:08:51.167Z,69.15
2022-11-01T08:13:52.825Z,68.87
2022-11-01T08:18:54.458Z,68.51
2022-11-01T08:23:56.091Z,67.76
2022-11-01T08:28:58.078Z,66.36
2022-11-01T08:33:59.776Z,65.43
2022-11-01T08:39:01.673Z,64.29
2022-11-01T08:44:03.647Z,63.74
2022-11-01T08:49:39.425Z,61.75
2022-11-01T08:54:41.071Z,62.09
2022-11-01T08:59:42.739Z,61.58
2022-11-01T09:04:44.396Z,60.63
2022-11-01T09:09:46.622Z,60.55
2022-11-01T09:14:49.221Z,58.62
2022-11-01T09:19:50.945Z,54.65
2022-11-01T09:24:55.499Z,52.34
2022-11-01T09:29:57.217Z,51.37
2022-11-01T09:34:58.918Z,48.77
2022-11-01T09:40:00.650Z,49.37
2022-11-01T09:45:09.672Z,48.59
2022-11-01T09:50:23.995Z,48.87
2022-11-01T09:55:39.671Z,48.41
2022-11-01T10:00:46.556Z,48.10
2022-11-01T10:05:54.910Z,48.78
2022-11-01T10:11:08.569Z,46.08
2022-11-01T10:16:19.672Z,47.06
2022-11-01T10:21:25.844Z,47.33
2022-11-01T10:26:31.329Z,47.10
2022-11-01T10:31:39.417Z,47.15
2022-11-01T10:36:45.094Z,48.21
2022-11-01T10:41:52.509Z,46.97
2022-11-01T10:46:56.801Z,47.29
2022-11-01T10:52:07.639Z,46.90
2022-11-01T10:57:41.897Z,46.20
2022-11-01T11:02:47.647Z,45.47
2022-11-01T11:07:49.468Z,45.71
2022-11-01T11:12:56.338Z,44.95
2022-11-01T11:18:02.201Z,44.84
2022-11-01T11:23:04.429Z,44.29
2022-11-01T11:28:07.082Z,44.35
2022-11-01T11:33:17.114Z,42.79
2022-11-01T11:38:18.758Z,43.70
2022-11-01T11:43:23.322Z,42.98
2022-11-01T11:48:25.093Z,42.77
2022-11-01T11:53:29.321Z,41.43
2022-11-01T11:58:39.390Z,40.81
2022-11-01T12:03:58.014Z,39.90
2022-11-01T12:09:00.628Z,41.34
2022-11-01T12:14:02.719Z,41.17
2022-11-01T12:19:05.536Z,41.04
2022-11-01T12:24:27.964Z,39.11
2022-11-01T12:29:54.591Z,39.48
2022-11-01T12:35:00.728Z,39.79
2022-11-01T12:40:05.517Z,39.36
2022-11-01T12:45:22.500Z,39.94
2022-11-01T12:50:42.251Z,38.92
2022-11-01T12:55:44.269Z,40.62
2022-11-01T13:01:19.994Z,39.91
2022-11-01T13:06:46.812Z,40.67
2022-11-01T13:12:17.591Z,39.60
2022-11-01T13:17:29.887Z,40.72
2022-11-01T13:22:34.465Z,40.53
2022-11-01T13:27:59.742Z,37.89
2022-11-01T13:33:15.404Z,37.51
2022-11-01T13:38:29.264Z,38.00
2022-11-01T13:43:42.822Z,38.54
2022-11-01T13:48:47.526Z,38.64
2022-11-01T13:53:55.846Z,38.74
2022-11-01T13:58:58.729Z,38.93
2022-11-01T14:04:19.082Z,38.49
2022-11-01T14:09:23.686Z,39.66
2022-11-01T14:14:45.574Z,37.50
2022-11-01T14:19:48.650Z,38.11
2022-11-01T14:24:57.665Z,37.84
2022-11-01T14:29:59.444Z,38.11
2022-11-01T14:35:04.600Z,38.45
2022-11-01T14:40:33.400Z,37.82
2022-11-01T14:45:39.722Z,38.68
2022-11-01T14:51:03.005Z,39.31
2022-11-01T14:56:23.354Z,38.99
2022-11-01T15:01:25.508Z,39.61
2022-11-01T15:06:31.083Z,40.22
2022-11-01T15:11:34.756Z,40.52
2022-11-01T15:16:36.996Z,40.68
2022-11-01T15:21:47.112Z,41.05
2022-11-01T15:26:49.702Z,41.75
2022-11-01T15:31:58.174Z,41.73
2022-11-01T15:37:18.707Z,42.30
2022-11-01T15:42:27.514Z,43.37
2022-11-01T15:47:29.344Z,43.85
2022-11-01T15:52:34.038Z,44.58
2022-11-01T15:57:45.454Z,44.69
2022-11-01T16:03:04.523Z,45.53
2022-11-01T16:08:08.944Z,45.83
2022-11-01T16:13:17.578Z,46.21
2022-11-01T16:18:24.190Z,46.83
2022-11-01T16:23:30.348Z,48.35
2022-11-01T16:28:39.968Z,48.54
2022-11-01T16:33:46.578Z,48.00
2022-11-01T16:38:53.428Z,48.27
2022-11-01T16:43:57.894Z,48.56
2022-11-01T16:49:05.651Z,48.84
2022-11-01T16:54:10.404Z,49.26
2022-11-01T16:59:17.987Z,49.43
2022-11-01T17:04:19.702Z,50.87
2022-11-01T17:09:22.837Z,52.05
2022-11-01T17:14:24.615Z,52.63
2022-11-01T17:19:31.353Z,52.63
2022-11-01T17:24:33.516Z,52.91
2022-11-01T17:29:35.258Z,53.91
2022-11-01T17:34:38.102Z,53.73
2022-11-01T17:39:39.822Z,54.26
2022-11-01T17:44:41.587Z,54.91
2022-11-01T17:49:44.414Z,54.59
2022-11-01T17:54:49.063Z,55.07
2022-11-01T17:59:51.469Z,55.99
2022-11-01T18:04:53.856Z,56.43
2022-11-01T18:09:56.607Z,56.93
2022-11-01T18:15:08.865Z,57.67
2022-11-01T18:20:46.164Z,57.41
2022-11-01T18:26:02.106Z,57.07
2022-11-01T18:31:31.788Z,58.03
2022-11-01T18:36:53.504Z,58.45
2022-11-01T18:41:55.269Z,58.76
2022-11-01T18:47:04.865Z,59.07
2022-11-01T18:52:17.867Z,59.49
2022-11-01T18:57:25.539Z,59.16
2022-11-01T19:02:28.331Z,59.85
2022-11-01T19:07:39.578Z,60.20
2022-11-01T19:12:54.845Z,60.63
2022-11-01T19:18:13.087Z,61.05
2022-11-01T19:23:38.258Z,60.83
2022-11-01T19:28:40.599Z,60.83
2022-11-01T19:33:45.584Z,61.46
2022-11-01T19:38:53.143Z,61.39
2022-11-01T19:43:58.271Z,61.82
2022-11-01T19:49:02.295Z,61.78
2022-11-01T19:54:11.395Z,62.55
2022-11-01T19:59:15.961Z,62.27
2022-11-01T20:04:29.769Z,62.44
2022-11-01T20:09:38.915Z,62.59
2022-11-01T20:14:40.567Z,62.78
2022-11-01T20:19:42.187Z,62.77
2022-11-01T20:24:43.793Z,62.84
2022-11-01T20:29:45.509Z,63.22
2022-11-01T20:34:47.118Z,63.04
2022-11-01T20:39:49.034Z,62.92
2022-11-01T20:44:51.007Z,62.99
2022-11-01T20:49:53.849Z,63.42
2022-11-01T20:54:55.535Z,63.64
2022-11-01T20:59:57.229Z,63.87
2022-11-01T21:05:14.396Z,63.64
2022-11-01T21:10:42.923Z,64.28
2022-11-01T21:15:45.688Z,64.00
2022-11-01T21:20:49.343Z,64.04
2022-11-01T21:25:53.462Z,64.55
2022-11-01T21:30:57.394Z,64.24
2022-11-01T21:35:59.009Z,64.81
2022-11-01T21:41:00.779Z,64.56
2022-11-01T21:46:02.444Z,64.85
2022-11-01T21:51:04.170Z,64.64
2022-11-01T21:56:06.191Z,64.59
2022-11-01T22:01:08.486Z,64.99
2022-11-01T22:06:10.189Z,64.91
2022-11-01T22:11:11.839Z,65.15
2022-11-01T22:16:13.443Z,65.36
2022-11-01T22:21:15.490Z,65.39
2022-11-01T22:26:17.175Z,65.66
2022-11-01T22:31:19.573Z,65.57
2022-11-01T22:36:29.610Z,65.64
2022-11-01T22:41:36.033Z,65.54
2022-11-01T22:46:58.934Z,65.24
2022-11-01T22:52:19.592Z,65.66
2022-11-01T22:57:23.511Z,65.22
2022-11-01T23:02:30.662Z,65.35
2022-11-01T23:07:45.629Z,65.42
2022-11-01T23:13:06.405Z,65.48
2022-11-01T23:18:17.444Z,65.56
2022-11-01T23:23:20.603Z,65.41
2022-11-01T23:28:24.190Z,65.55
2022-11-01T23:33:34.131Z,65.35
2022-11-01T23:38:38.287Z,65.12
2022-11-01T23:43:41.409Z,65.68
2022-11-01T23:48:44.544Z,65.85
2022-11-01T23:53:49.049Z,65.58
2022-11-01T23:58:59.379Z,65.70
